createdAt,value
2017-06-19T00:00:37.836Z,0
2017-06-19T00:01:48.050Z,0
2017-06-19T00:02:57.644Z,0
2017-06-19T00:04:07.961Z,0
2017-06-19T00:05:17.864Z,0
2017-06-19T00:06:28.090Z,0
2017-06-19T00:07:37.388Z,0
2017-06-19T00:08:47.314Z,0
2017-06-19T00:09:57.641Z,0
2017-06-19T00:11:07.546Z,0
2017-06-19T00:12:17.471Z,0
2017-06-19T00:13:27.381Z,0
2017-06-19T00:14:37.586Z,0
2017-06-19T00:15:47.503Z,0
2017-06-19T00:16:57.415Z,0
2017-06-19T00:18:07.330Z,0
2017-06-19T00:19:17.550Z,0
2017-06-19T00:20:26.848Z,0
2017-06-19T00:21:36.812Z,0
2017-06-19T00:22:46.729Z,0
2017-06-19T00:23:56.331Z,0
2017-06-19T00:25:06.557Z,0
2017-06-19T00:26:15.861Z,0
2017-06-19T00:27:25.613Z,0
2017-06-19T00:28:35.830Z,0
2017-06-19T00:29:45.752Z,0
2017-06-19T00:30:55.984Z,0
2017-06-19T00:32:05.910Z,0
2017-06-19T00:33:16.486Z,0
2017-06-19T00:34:26.098Z,0
2017-06-19T00:35:36.008Z,0
2017-06-19T00:36:45.945Z,0
2017-06-19T00:37:56.165Z,0
2017-06-19T00:39:05.891Z,0
2017-06-19T00:40:15.809Z,0
2017-06-19T00:41:25.737Z,0
2017-06-19T00:42:35.356Z,0
2017-06-19T00:43:45.269Z,0
2017-06-19T00:44:55.344Z,0
2017-06-19T00:46:05.594Z,0
2017-06-19T00:47:14.900Z,0
2017-06-19T00:48:25.138Z,0
2017-06-19T00:49:35.051Z,0
2017-06-19T00:50:44.957Z,0
2017-06-19T00:51:54.862Z,0
2017-06-19T00:53:04.150Z,0
2017-06-19T00:54:14.050Z,0
2017-06-19T00:55:23.654Z,0
2017-06-19T00:56:34.036Z,0
2017-06-19T00:57:43.340Z,0
2017-06-19T00:58:53.568Z,0
2017-06-19T01:00:03.487Z,0
2017-06-19T01:01:13.405Z,0
2017-06-19T01:02:22.700Z,0
2017-06-19T01:03:32.307Z,0
2017-06-19T01:04:42.222Z,0
2017-06-19T01:05:51.819Z,0
2017-06-19T01:07:01.415Z,0
2017-06-19T01:08:11.638Z,0
2017-06-19T01:09:21.267Z,0
2017-06-19T01:10:31.475Z,0
2017-06-19T01:11:41.082Z,0
2017-06-19T01:12:51.312Z,0
2017-06-19T01:14:01.260Z,0
2017-06-19T01:15:11.494Z,0
2017-06-19T01:16:21.094Z,0
2017-06-19T01:17:31.019Z,0
2017-06-19T01:18:40.316Z,0
2017-06-19T01:19:50.530Z,0
2017-06-19T01:21:00.131Z,0
2017-06-19T01:22:10.047Z,0
2017-06-19T01:23:19.670Z,0
2017-06-19T01:24:28.969Z,0
2017-06-19T01:25:38.891Z,0
2017-06-19T01:26:49.111Z,0
2017-06-19T01:27:59.024Z,0
2017-06-19T01:29:08.637Z,0
2017-06-19T01:30:18.548Z,0
2017-06-19T01:31:28.509Z,0
2017-06-19T01:32:38.726Z,0
2017-06-19T01:33:48.656Z,0
2017-06-19T01:34:58.569Z,0
2017-06-19T01:36:08.482Z,0
2017-06-19T01:37:18.736Z,0
2017-06-19T01:38:28.657Z,0
2017-06-19T01:39:38.261Z,0
2017-06-19T01:40:48.175Z,0
2017-06-19T01:41:58.084Z,0
2017-06-19T01:43:07.836Z,0
2017-06-19T01:44:17.742Z,0
2017-06-19T01:45:27.049Z,0
2017-06-19T01:46:36.962Z,0
2017-06-19T01:47:46.263Z,0
2017-06-19T01:48:56.178Z,0
2017-06-19T01:50:06.394Z,0
2017-06-19T01:51:16.607Z,0
2017-06-19T01:52:26.522Z,0
2017-06-19T01:53:36.128Z,0
2017-06-19T01:54:46.198Z,0
2017-06-19T01:55:56.418Z,0
2017-06-19T01:57:06.641Z,0
2017-06-19T01:58:15.945Z,0
2017-06-19T01:59:25.842Z,0
2017-06-19T02:00:36.205Z,0
2017-06-19T02:01:46.117Z,0
2017-06-19T02:02:56.038Z,0
2017-06-19T02:04:05.966Z,0
2017-06-19T02:05:15.873Z,0
2017-06-19T02:06:26.232Z,0
2017-06-19T02:07:36.140Z,0
2017-06-19T02:08:46.064Z,0
2017-06-19T02:09:55.971Z,0
2017-06-19T02:11:05.888Z,0
2017-06-19T02:12:15.502Z,0
2017-06-19T02:13:25.121Z,0
2017-06-19T02:14:35.022Z,0
2017-06-19T02:15:44.929Z,0
2017-06-19T02:16:55.143Z,0
2017-06-19T02:18:05.393Z,0
2017-06-19T02:19:14.990Z,0
2017-06-19T02:20:24.929Z,0
2017-06-19T02:21:35.146Z,0
2017-06-19T02:22:45.046Z,0
2017-06-19T02:23:55.409Z,0
2017-06-19T02:25:05.026Z,0
2017-06-19T02:26:14.622Z,0
2017-06-19T02:27:24.840Z,0
2017-06-19T02:28:34.127Z,0
2017-06-19T02:29:44.409Z,0
2017-06-19T02:30:54.632Z,0
2017-06-19T02:32:04.850Z,0
2017-06-19T02:33:14.457Z,0
2017-06-19T02:34:24.679Z,0
2017-06-19T02:35:34.893Z,0
2017-06-19T02:36:44.184Z,0
2017-06-19T02:37:54.112Z,0
2017-06-19T02:39:04.035Z,0
2017-06-19T02:40:14.254Z,0
2017-06-19T02:41:24.509Z,0
2017-06-19T02:42:34.427Z,0
2017-06-19T02:43:44.332Z,0
2017-06-19T02:44:54.238Z,0
2017-06-19T02:46:03.843Z,0
2017-06-19T02:47:14.096Z,0
2017-06-19T02:48:23.999Z,0
2017-06-19T02:49:33.923Z,0
2017-06-19T02:50:43.835Z,0
2017-06-19T02:51:54.063Z,0
2017-06-19T02:53:04.580Z,0
2017-06-19T02:54:14.487Z,0
2017-06-19T02:55:24.394Z,0
2017-06-19T02:56:34.016Z,0
2017-06-19T02:57:44.232Z,0
2017-06-19T02:58:54.185Z,0
2017-06-19T03:00:04.402Z,0
2017-06-19T03:01:14.303Z,0
2017-06-19T03:02:24.208Z,0
2017-06-19T03:03:34.127Z,0
2017-06-19T03:04:44.388Z,0
2017-06-19T03:05:54.614Z,0
2017-06-19T03:07:04.823Z,0
2017-06-19T03:08:14.772Z,0
2017-06-19T03:09:24.984Z,0
2017-06-19T03:10:34.992Z,0
2017-06-19T03:11:45.223Z,0
2017-06-19T03:12:54.817Z,0
2017-06-19T03:14:04.419Z,0
2017-06-19T03:15:14.666Z,0
2017-06-19T03:16:23.985Z,0
2017-06-19T03:17:33.911Z,0
2017-06-19T03:18:43.197Z,0
2017-06-19T03:19:53.099Z,0
2017-06-19T03:21:03.012Z,0
2017-06-19T03:22:13.081Z,0
2017-06-19T03:23:22.677Z,0
2017-06-19T03:24:31.969Z,0
2017-06-19T03:25:41.560Z,0
2017-06-19T03:26:51.474Z,0
2017-06-19T03:28:00.868Z,0
2017-06-19T03:29:11.079Z,0
2017-06-19T03:30:21.289Z,0
2017-06-19T03:31:31.520Z,0
2017-06-19T03:32:41.734Z,0
2017-06-19T03:33:51.497Z,0
2017-06-19T03:35:01.715Z,0
2017-06-19T03:36:11.313Z,0
2017-06-19T03:37:21.225Z,0
2017-06-19T03:38:31.464Z,0
2017-06-19T03:39:41.836Z,0
2017-06-19T03:40:51.432Z,0
2017-06-19T03:42:01.354Z,0
2017-06-19T03:43:11.571Z,0
2017-06-19T03:44:21.170Z,0
2017-06-19T03:45:31.385Z,0
2017-06-19T03:46:41.308Z,0
2017-06-19T03:47:50.908Z,0
2017-06-19T03:49:01.114Z,0
2017-06-19T03:50:11.031Z,0
2017-06-19T03:51:21.035Z,0
2017-06-19T03:52:31.249Z,0
2017-06-19T03:53:40.859Z,0
2017-06-19T03:54:50.768Z,0
2017-06-19T03:56:00.978Z,0
2017-06-19T03:57:11.036Z,0
2017-06-19T03:58:20.941Z,0
2017-06-19T03:59:30.845Z,0
2017-06-19T04:00:40.754Z,0
2017-06-19T04:01:50.357Z,0
2017-06-19T04:03:00.572Z,0
2017-06-19T04:04:10.473Z,0
2017-06-19T04:05:20.406Z,0
2017-06-19T04:06:30.012Z,0
2017-06-19T04:07:39.616Z,0
2017-06-19T04:08:49.985Z,0
2017-06-19T04:09:59.579Z,0
2017-06-19T04:11:08.876Z,0
2017-06-19T04:12:18.471Z,0
2017-06-19T04:13:27.766Z,5
2017-06-19T04:14:37.820Z,5
2017-06-19T04:15:47.730Z,5
2017-06-19T04:16:57.348Z,5
2017-06-19T04:18:06.955Z,5
2017-06-19T04:19:16.859Z,5
2017-06-19T04:20:26.931Z,5
2017-06-19T04:21:36.843Z,5
2017-06-19T04:22:47.059Z,5
2017-06-19T04:23:56.971Z,5
2017-06-19T04:25:06.871Z,5
2017-06-19T04:26:16.645Z,5
2017-06-19T04:27:26.558Z,5
2017-06-19T04:28:36.776Z,5
2017-06-19T04:29:46.726Z,5
2017-06-19T04:30:56.933Z,5
2017-06-19T04:32:07.193Z,5
2017-06-19T04:33:17.436Z,5
2017-06-19T04:34:27.344Z,5
2017-06-19T04:35:37.274Z,5
2017-06-19T04:36:47.193Z,5
2017-06-19T04:37:57.422Z,5
2017-06-19T04:39:07.059Z,5
2017-06-19T04:40:16.684Z,5
2017-06-19T04:41:26.596Z,5
2017-06-19T04:42:36.513Z,5
2017-06-19T04:43:46.810Z,10
2017-06-19T04:44:57.042Z,10
2017-06-19T04:46:07.265Z,10
2017-06-19T04:47:17.178Z,10
2017-06-19T04:48:27.098Z,10
2017-06-19T04:49:37.683Z,10
2017-06-19T04:50:47.294Z,10
2017-06-19T04:51:57.268Z,10
2017-06-19T04:53:07.494Z,10
2017-06-19T04:54:17.708Z,10
2017-06-19T04:55:28.112Z,10
2017-06-19T04:56:38.032Z,10
2017-06-19T04:57:48.259Z,10
2017-06-19T04:58:57.866Z,10
2017-06-19T05:00:07.470Z,10
2017-06-19T05:01:17.138Z,10
2017-06-19T05:02:27.373Z,10
2017-06-19T05:03:37.591Z,10
2017-06-19T05:04:47.816Z,10
2017-06-19T05:05:58.030Z,10
2017-06-19T05:07:07.429Z,10
2017-06-19T05:08:17.343Z,10
2017-06-19T05:09:26.939Z,10
2017-06-19T05:10:35.960Z,10
2017-06-19T05:11:45.871Z,15
2017-06-19T05:12:55.490Z,15
2017-06-19T05:14:05.109Z,15
2017-06-19T05:15:15.043Z,20
2017-06-19T05:16:24.959Z,20
2017-06-19T05:17:34.871Z,20
2017-06-19T05:18:44.182Z,25
2017-06-19T05:19:54.125Z,30
2017-06-19T05:21:04.366Z,35
2017-06-19T05:22:14.587Z,45
2017-06-19T05:23:24.199Z,45
2017-06-19T05:24:33.850Z,45
2017-06-19T05:25:43.471Z,45
2017-06-19T05:26:53.687Z,45
2017-06-19T05:28:03.595Z,45
2017-06-19T05:29:13.502Z,45
2017-06-19T05:30:23.108Z,45
2017-06-19T05:31:32.706Z,50
2017-06-19T05:32:42.622Z,50
2017-06-19T05:33:52.528Z,50
2017-06-19T05:35:02.428Z,50
2017-06-19T05:36:12.503Z,50
2017-06-19T05:37:22.731Z,50
2017-06-19T05:38:32.032Z,50
2017-06-19T05:39:41.937Z,50
2017-06-19T05:40:52.148Z,50
2017-06-19T05:42:02.397Z,50
2017-06-19T05:43:12.619Z,50
2017-06-19T05:44:22.840Z,50
2017-06-19T05:45:32.456Z,50
2017-06-19T05:46:42.382Z,50
2017-06-19T05:47:52.762Z,50
2017-06-19T05:49:02.405Z,50
2017-06-19T05:50:12.322Z,50
2017-06-19T05:51:22.244Z,50
2017-06-19T05:52:31.849Z,55
2017-06-19T05:53:42.118Z,55
2017-06-19T05:54:51.715Z,55
2017-06-19T05:56:01.635Z,55
2017-06-19T05:57:11.544Z,55
2017-06-19T05:58:21.458Z,55
2017-06-19T05:59:31.516Z,55
2017-06-19T06:00:41.121Z,55
2017-06-19T06:01:51.033Z,55
2017-06-19T06:03:00.942Z,55
2017-06-19T06:04:10.251Z,55
2017-06-19T06:05:20.517Z,55
2017-06-19T06:06:30.738Z,55
2017-06-19T06:07:40.349Z,55
2017-06-19T06:08:50.570Z,55
2017-06-19T06:10:00.498Z,55
2017-06-19T06:11:10.808Z,55
2017-06-19T06:12:21.125Z,55
2017-06-19T06:13:30.754Z,55
2017-06-19T06:14:40.360Z,55
2017-06-19T06:15:50.610Z,55
2017-06-19T06:17:00.592Z,55
2017-06-19T06:18:09.888Z,60
2017-06-19T06:19:19.814Z,60
2017-06-19T06:20:29.735Z,60
2017-06-19T06:21:39.649Z,60
2017-06-19T06:22:49.257Z,60
2017-06-19T06:23:59.173Z,60
2017-06-19T06:25:09.391Z,60
2017-06-19T06:26:19.614Z,60
2017-06-19T06:27:29.519Z,60
2017-06-19T06:28:39.430Z,60
2017-06-19T06:29:48.722Z,60
2017-06-19T06:30:58.960Z,60
2017-06-19T06:32:09.187Z,60
2017-06-19T06:33:19.402Z,60
2017-06-19T06:34:29.350Z,60
2017-06-19T06:35:39.251Z,65
2017-06-19T06:36:48.544Z,65
2017-06-19T06:37:58.461Z,65
2017-06-19T06:39:08.376Z,65
2017-06-19T06:40:18.291Z,65
2017-06-19T06:41:27.891Z,65
2017-06-19T06:42:37.535Z,65
2017-06-19T06:43:47.767Z,65
2017-06-19T06:44:57.675Z,65
2017-06-19T06:46:07.642Z,65
2017-06-19T06:47:17.893Z,65
2017-06-19T06:48:27.523Z,65
2017-06-19T06:49:37.755Z,65
2017-06-19T06:50:47.364Z,65
2017-06-19T06:51:57.429Z,65
2017-06-19T06:53:07.652Z,70
2017-06-19T06:54:16.955Z,70
2017-06-19T06:55:26.882Z,70
2017-06-19T06:56:36.484Z,60
2017-06-19T06:57:45.524Z,55
2017-06-19T06:58:55.752Z,70
2017-06-19T07:00:05.070Z,75
2017-06-19T07:01:14.983Z,80
2017-06-19T07:02:24.915Z,80
2017-06-19T07:03:34.625Z,85
2017-06-19T07:04:44.240Z,85
2017-06-19T07:05:53.858Z,85
2017-06-19T07:07:03.759Z,85
2017-06-19T07:08:13.687Z,90
2017-06-19T07:09:23.390Z,90
2017-06-19T07:10:33.300Z,95
2017-06-19T07:11:43.249Z,95
2017-06-19T07:12:53.158Z,100
2017-06-19T07:14:03.111Z,105
2017-06-19T07:15:13.366Z,115
2017-06-19T07:16:23.255Z,130
2017-06-19T07:17:33.266Z,145
2017-06-19T07:18:43.065Z,145
2017-06-19T07:19:52.993Z,120
2017-06-19T07:21:03.769Z,115
2017-06-19T07:22:13.677Z,110
2017-06-19T07:23:23.905Z,110
2017-06-19T07:24:34.590Z,115
2017-06-19T07:25:45.221Z,125
2017-06-19T07:26:55.365Z,190
2017-06-19T07:28:06.024Z,475
2017-06-19T07:29:15.951Z,735
2017-06-19T07:30:26.190Z,725
2017-06-19T07:31:36.095Z,685
2017-06-19T07:32:46.627Z,570
2017-06-19T07:33:56.876Z,545
2017-06-19T07:35:06.784Z,550
2017-06-19T07:36:16.079Z,545
2017-06-19T07:37:26.004Z,595
2017-06-19T07:38:35.759Z,605
2017-06-19T07:39:45.681Z,490
2017-06-19T07:40:55.905Z,400
2017-06-19T07:42:05.828Z,360
2017-06-19T07:43:15.434Z,495
2017-06-19T07:44:25.800Z,620
2017-06-19T07:45:35.707Z,705
2017-06-19T07:46:45.944Z,845
2017-06-19T07:47:55.562Z,855
2017-06-19T07:49:05.487Z,1005
2017-06-19T07:50:15.419Z,955
2017-06-19T07:51:25.653Z,1045
2017-06-19T07:52:35.580Z,1170
2017-06-19T07:53:45.226Z,1070
2017-06-19T07:54:54.836Z,1170
2017-06-19T07:56:05.105Z,1105
2017-06-19T07:57:14.722Z,810
2017-06-19T07:58:24.645Z,485
2017-06-19T07:59:33.967Z,340
2017-06-19T08:00:43.879Z,295
2017-06-19T08:01:53.645Z,285
2017-06-19T08:03:03.572Z,385
2017-06-19T08:04:13.185Z,840
2017-06-19T08:05:23.103Z,1175
2017-06-19T08:06:33.344Z,1130
2017-06-19T08:07:43.058Z,1215
2017-06-19T08:08:52.691Z,1260
2017-06-19T08:10:02.309Z,1335
2017-06-19T08:11:12.230Z,1325
2017-06-19T08:12:22.150Z,1305
2017-06-19T08:13:31.749Z,1330
2017-06-19T08:14:41.357Z,1305
2017-06-19T08:15:51.286Z,1300
2017-06-19T08:17:00.589Z,1205
2017-06-19T08:18:10.502Z,1205
2017-06-19T08:19:20.793Z,1220
2017-06-19T08:20:31.022Z,1295
2017-06-19T08:21:40.947Z,1270
2017-06-19T08:22:50.555Z,1250
2017-06-19T08:23:59.867Z,1385
2017-06-19T08:25:09.947Z,1430
2017-06-19T08:26:19.876Z,1270
2017-06-19T08:27:29.507Z,1335
2017-06-19T08:28:38.507Z,1440
2017-06-19T08:29:48.131Z,1465
2017-06-19T08:30:58.094Z,1305
2017-06-19T08:32:08.015Z,1390
2017-06-19T08:33:17.365Z,1350
2017-06-19T08:34:26.048Z,1360
2017-06-19T08:35:35.976Z,1300
2017-06-19T08:36:46.274Z,1365
2017-06-19T08:37:56.497Z,1410
2017-06-19T08:39:06.111Z,1265
2017-06-19T08:40:15.412Z,1400
2017-06-19T08:41:25.659Z,1450
2017-06-19T08:42:34.978Z,1285
2017-06-19T08:43:44.939Z,1365
2017-06-19T08:44:54.871Z,1440
2017-06-19T08:46:04.790Z,1230
2017-06-19T08:47:14.700Z,625
2017-06-19T08:48:24.607Z,110
2017-06-19T08:49:34.525Z,70
2017-06-19T08:50:44.133Z,55
2017-06-19T08:51:53.435Z,60
2017-06-19T08:53:03.373Z,55
2017-06-19T08:54:13.307Z,50
2017-06-19T08:55:23.528Z,40
2017-06-19T08:56:33.462Z,35
2017-06-19T08:57:42.780Z,35
2017-06-19T08:58:52.705Z,30
2017-06-19T09:00:02.315Z,30
2017-06-19T09:01:12.237Z,30
2017-06-19T09:02:21.872Z,25
2017-06-19T09:03:32.115Z,25
2017-06-19T09:04:42.332Z,25
2017-06-19T09:05:52.396Z,25
2017-06-19T09:07:02.026Z,25
2017-06-19T09:08:11.947Z,20
2017-06-19T09:09:21.928Z,20
2017-06-19T09:10:31.289Z,20
2017-06-19T09:11:41.249Z,20
2017-06-19T09:12:51.186Z,20
2017-06-19T09:14:00.806Z,20
2017-06-19T09:15:11.037Z,20
2017-06-19T09:16:20.676Z,20
2017-06-19T09:17:30.612Z,20
2017-06-19T09:18:40.543Z,20
2017-06-19T09:19:50.785Z,20
2017-06-19T09:21:00.721Z,15
2017-06-19T09:22:10.338Z,15
2017-06-19T09:23:20.054Z,15
2017-06-19T09:24:30.290Z,15
2017-06-19T09:25:39.932Z,15
2017-06-19T09:26:49.860Z,15
2017-06-19T09:27:59.463Z,15
2017-06-19T09:29:09.782Z,15
2017-06-19T09:30:19.130Z,15
2017-06-19T09:31:28.157Z,15
2017-06-19T09:32:38.096Z,15
2017-06-19T09:33:48.046Z,15
2017-06-19T09:34:58.104Z,20
2017-06-19T09:36:08.324Z,15
2017-06-19T09:37:17.692Z,20
2017-06-19T09:38:27.929Z,20
2017-06-19T09:39:38.176Z,15
2017-06-19T09:40:48.255Z,15
2017-06-19T09:41:57.567Z,15
2017-06-19T09:43:07.479Z,15
2017-06-19T09:44:17.081Z,15
2017-06-19T09:45:27.003Z,15
2017-06-19T09:46:37.073Z,15
2017-06-19T09:47:46.681Z,15
2017-06-19T09:48:56.914Z,15
2017-06-19T09:50:06.238Z,15
2017-06-19T09:51:15.575Z,15
2017-06-19T09:52:25.555Z,15
2017-06-19T09:53:35.472Z,15
2017-06-19T09:54:45.408Z,15
2017-06-19T09:55:55.044Z,15
2017-06-19T09:57:04.968Z,15
2017-06-19T09:58:15.361Z,15
2017-06-19T09:59:25.524Z,15
2017-06-19T10:00:35.456Z,15
2017-06-19T10:01:45.053Z,15
2017-06-19T10:02:54.962Z,15
2017-06-19T10:04:04.879Z,15
2017-06-19T10:05:14.799Z,15
2017-06-19T10:06:25.022Z,15
2017-06-19T10:07:34.365Z,15
2017-06-19T10:08:43.965Z,15
2017-06-19T10:09:53.609Z,15
2017-06-19T10:11:02.629Z,15
2017-06-19T10:12:12.847Z,15
2017-06-19T10:13:23.065Z,15
2017-06-19T10:14:33.002Z,15
2017-06-19T10:15:42.731Z,15
2017-06-19T10:16:52.368Z,15
2017-06-19T10:18:02.053Z,15
2017-06-19T10:19:11.351Z,15
2017-06-19T10:20:21.569Z,15
2017-06-19T10:21:31.819Z,15
2017-06-19T10:22:41.426Z,15
2017-06-19T10:23:50.733Z,15
2017-06-19T10:25:00.331Z,15
2017-06-19T10:26:10.247Z,15
2017-06-19T10:27:20.312Z,15
2017-06-19T10:28:30.236Z,15
2017-06-19T10:29:40.466Z,15
2017-06-19T10:30:50.387Z,15
2017-06-19T10:32:00.317Z,15
2017-06-19T10:33:10.237Z,15
2017-06-19T10:34:20.471Z,15
2017-06-19T10:35:30.714Z,15
2017-06-19T10:36:40.628Z,15
2017-06-19T10:37:50.490Z,15
2017-06-19T10:39:00.866Z,10
2017-06-19T10:40:10.795Z,10
2017-06-19T10:41:20.099Z,10
2017-06-19T10:42:30.020Z,10
2017-06-19T10:43:40.251Z,10
2017-06-19T10:44:49.911Z,10
2017-06-19T10:45:59.825Z,10
2017-06-19T10:47:09.438Z,10
2017-06-19T10:48:19.364Z,10
2017-06-19T10:49:29.293Z,10
2017-06-19T10:50:39.553Z,10
2017-06-19T10:51:49.157Z,10
2017-06-19T10:52:59.098Z,10
2017-06-19T10:54:09.310Z,10
2017-06-19T10:55:19.533Z,10
2017-06-19T10:56:28.985Z,10
2017-06-19T10:57:38.036Z,10
2017-06-19T10:58:47.939Z,10
2017-06-19T10:59:58.162Z,10
2017-06-19T11:01:08.393Z,10
2017-06-19T11:02:18.068Z,10
2017-06-19T11:03:28.335Z,10
2017-06-19T11:04:37.935Z,10
2017-06-19T11:05:48.170Z,10
2017-06-19T11:06:58.087Z,10
2017-06-19T11:08:08.327Z,10
2017-06-19T11:09:17.945Z,10
2017-06-19T11:10:27.564Z,10
2017-06-19T11:11:37.786Z,10
2017-06-19T11:12:47.397Z,10
2017-06-19T11:13:57.732Z,10
2017-06-19T11:15:07.037Z,10
2017-06-19T11:16:16.958Z,10
2017-06-19T11:17:26.871Z,10
2017-06-19T11:18:35.862Z,10
2017-06-19T11:19:45.576Z,10
2017-06-19T11:20:55.488Z,10
2017-06-19T11:22:05.406Z,10
2017-06-19T11:23:15.317Z,10
2017-06-19T11:24:25.290Z,10
2017-06-19T11:25:35.308Z,10
2017-06-19T11:26:45.213Z,10
2017-06-19T11:27:55.123Z,10
2017-06-19T11:29:04.424Z,10
2017-06-19T11:30:14.679Z,10
2017-06-19T11:31:24.384Z,10
2017-06-19T11:32:33.988Z,10
2017-06-19T11:33:42.980Z,10
2017-06-19T11:34:53.234Z,10
2017-06-19T11:36:02.839Z,10
2017-06-19T11:37:12.890Z,10
2017-06-19T11:38:22.778Z,10
2017-06-19T11:39:32.383Z,10
2017-06-19T11:40:42.308Z,10
2017-06-19T11:41:52.231Z,10
2017-06-19T11:43:01.844Z,10
2017-06-19T11:44:11.451Z,10
2017-06-19T11:45:21.358Z,10
2017-06-19T11:46:31.269Z,10
2017-06-19T11:47:41.180Z,10
2017-06-19T11:48:50.784Z,10
2017-06-19T11:50:00.692Z,10
2017-06-19T11:51:10.617Z,10
2017-06-19T11:52:20.531Z,10
2017-06-19T11:53:29.842Z,10
2017-06-19T11:54:40.053Z,10
2017-06-19T11:55:49.986Z,10
2017-06-19T11:57:00.214Z,10
2017-06-19T11:58:10.150Z,10
2017-06-19T11:59:19.463Z,10
2017-06-19T12:00:29.363Z,10
2017-06-19T12:01:39.293Z,10
2017-06-19T12:02:48.604Z,10
2017-06-19T12:03:58.518Z,10
2017-06-19T12:05:08.145Z,10
2017-06-19T12:06:18.130Z,10
2017-06-19T12:07:27.773Z,10
2017-06-19T12:08:37.710Z,10
2017-06-19T12:09:47.942Z,10
2017-06-19T12:10:57.879Z,10
2017-06-19T12:12:08.130Z,10
2017-06-19T12:13:17.441Z,10
2017-06-19T12:14:27.589Z,10
2017-06-19T12:15:37.979Z,10
2017-06-19T12:16:47.894Z,10
2017-06-19T12:17:57.817Z,10
2017-06-19T12:19:07.124Z,10
2017-06-19T12:20:17.059Z,10
2017-06-19T12:21:27.308Z,10
2017-06-19T12:22:37.226Z,10
2017-06-19T12:23:46.827Z,10
2017-06-19T12:24:56.748Z,10
2017-06-19T12:26:06.366Z,10
2017-06-19T12:27:15.662Z,10
2017-06-19T12:28:25.260Z,10
2017-06-19T12:29:34.716Z,10
2017-06-19T12:30:44.323Z,10
2017-06-19T12:31:54.234Z,10
2017-06-19T12:33:03.534Z,10
2017-06-19T12:34:12.834Z,10
2017-06-19T12:35:22.601Z,10
2017-06-19T12:36:32.541Z,10
2017-06-19T12:37:42.449Z,10
2017-06-19T12:38:52.369Z,10
2017-06-19T12:40:01.670Z,10
2017-06-19T12:41:11.284Z,10
2017-06-19T12:42:20.589Z,10
2017-06-19T12:43:30.504Z,10
2017-06-19T12:44:40.442Z,10
2017-06-19T12:45:50.361Z,10
2017-06-19T12:46:59.763Z,10
2017-06-19T12:48:09.670Z,10
2017-06-19T12:49:19.288Z,10
2017-06-19T12:50:28.904Z,10
2017-06-19T12:51:39.129Z,10
2017-06-19T12:52:49.133Z,10
2017-06-19T12:53:58.753Z,10
2017-06-19T12:55:08.675Z,10
2017-06-19T12:56:18.905Z,10
2017-06-19T12:57:28.514Z,10
2017-06-19T12:58:37.915Z,10
2017-06-19T12:59:47.835Z,10
2017-06-19T13:00:57.745Z,10
2017-06-19T13:02:07.379Z,10
2017-06-19T13:03:16.982Z,10
2017-06-19T13:04:26.693Z,10
2017-06-19T13:05:36.614Z,10
2017-06-19T13:06:46.239Z,10
2017-06-19T13:07:56.464Z,10
2017-06-19T13:09:06.697Z,10
2017-06-19T13:10:16.299Z,10
2017-06-19T13:11:26.208Z,10
2017-06-19T13:12:35.827Z,10
2017-06-19T13:13:46.045Z,10
2017-06-19T13:14:55.341Z,10
2017-06-19T13:16:05.370Z,10
2017-06-19T13:17:15.598Z,10
2017-06-19T13:18:25.879Z,10
2017-06-19T13:19:36.114Z,10
2017-06-19T13:20:45.745Z,10
2017-06-19T13:21:55.645Z,10
2017-06-19T13:23:05.567Z,10
2017-06-19T13:24:15.483Z,10
2017-06-19T13:25:25.433Z,10
2017-06-19T13:26:35.375Z,10
2017-06-19T13:27:45.612Z,10
2017-06-19T13:28:55.533Z,10
2017-06-19T13:30:05.142Z,10
2017-06-19T13:31:15.066Z,10
2017-06-19T13:32:24.058Z,10
2017-06-19T13:33:33.657Z,10
2017-06-19T13:34:42.959Z,10
2017-06-19T13:35:52.570Z,10
2017-06-19T13:37:02.483Z,10
2017-06-19T13:38:12.392Z,10
2017-06-19T13:39:22.112Z,10
2017-06-19T13:40:32.037Z,10
2017-06-19T13:41:42.250Z,10
2017-06-19T13:42:51.301Z,10
2017-06-19T13:44:01.219Z,10
2017-06-19T13:45:11.447Z,10
2017-06-19T13:46:21.372Z,10
2017-06-19T13:47:30.682Z,10
2017-06-19T13:48:40.594Z,10
2017-06-19T13:49:50.200Z,5
2017-06-19T13:50:59.652Z,5
2017-06-19T13:52:09.577Z,5
2017-06-19T13:53:18.900Z,5
2017-06-19T13:54:28.509Z,5
2017-06-19T13:55:37.816Z,5
2017-06-19T13:56:47.429Z,10
2017-06-19T13:57:57.354Z,10
2017-06-19T13:59:06.344Z,10
2017-06-19T14:00:15.648Z,10
2017-06-19T14:01:25.257Z,10
2017-06-19T14:02:34.863Z,5
2017-06-19T14:03:45.094Z,5
2017-06-19T14:04:55.005Z,5
2017-06-19T14:06:05.611Z,5
2017-06-19T14:07:15.217Z,5
2017-06-19T14:08:24.930Z,5
2017-06-19T14:09:33.934Z,5
2017-06-19T14:10:44.159Z,5
2017-06-19T14:11:54.081Z,5
2017-06-19T14:13:03.687Z,5
2017-06-19T14:14:13.705Z,5
2017-06-19T14:15:23.313Z,5
2017-06-19T14:16:32.940Z,5
2017-06-19T14:17:42.863Z,5
2017-06-19T14:18:52.988Z,5
2017-06-19T14:20:03.209Z,5
2017-06-19T14:21:13.470Z,5
2017-06-19T14:22:23.089Z,5
2017-06-19T14:23:33.007Z,5
2017-06-19T14:24:42.614Z,5
2017-06-19T14:25:52.691Z,5
2017-06-19T14:27:02.615Z,5
2017-06-19T14:28:11.920Z,5
2017-06-19T14:29:21.525Z,5
2017-06-19T14:30:31.472Z,5
2017-06-19T14:31:41.390Z,5
2017-06-19T14:32:51.330Z,5
2017-06-19T14:34:00.954Z,10
2017-06-19T14:35:10.569Z,10
2017-06-19T14:36:20.493Z,10
2017-06-19T14:37:30.267Z,10
2017-06-19T14:38:40.488Z,10
2017-06-19T14:39:50.138Z,10
2017-06-19T14:41:00.368Z,10
2017-06-19T14:42:10.281Z,10
2017-06-19T14:43:20.858Z,10
2017-06-19T14:44:30.812Z,10
2017-06-19T14:45:41.050Z,10
2017-06-19T14:46:50.671Z,10
2017-06-19T14:48:00.906Z,10
2017-06-19T14:49:10.354Z,10
2017-06-19T14:50:20.269Z,10
2017-06-19T14:51:29.897Z,10
2017-06-19T14:52:39.558Z,10
2017-06-19T14:53:49.516Z,10
2017-06-19T14:54:59.586Z,5
2017-06-19T14:56:09.517Z,5
2017-06-19T14:57:19.458Z,5
2017-06-19T14:58:29.680Z,5
2017-06-19T14:59:39.285Z,5
2017-06-19T15:00:49.570Z,5
2017-06-19T15:01:59.178Z,5
2017-06-19T15:03:09.105Z,5
2017-06-19T15:04:18.719Z,5
2017-06-19T15:05:28.324Z,5
2017-06-19T15:06:38.544Z,5
2017-06-19T15:07:48.470Z,5
2017-06-19T15:08:58.378Z,5
2017-06-19T15:10:07.979Z,5
2017-06-19T15:11:17.891Z,5
2017-06-19T15:12:27.664Z,5
2017-06-19T15:13:37.618Z,5
2017-06-19T15:14:47.840Z,5
2017-06-19T15:15:57.769Z,5
2017-06-19T15:17:07.481Z,5
2017-06-19T15:18:17.454Z,5
2017-06-19T15:19:27.365Z,5
2017-06-19T15:20:37.297Z,5
2017-06-19T15:21:46.600Z,5
2017-06-19T15:22:56.534Z,5
2017-06-19T15:24:06.521Z,5
2017-06-19T15:25:16.763Z,5
2017-06-19T15:26:26.079Z,5
2017-06-19T15:27:35.406Z,5
2017-06-19T15:28:45.325Z,5
2017-06-19T15:29:55.393Z,5
2017-06-19T15:31:05.312Z,5
2017-06-19T15:32:14.941Z,5
2017-06-19T15:33:24.887Z,5
2017-06-19T15:34:35.117Z,5
2017-06-19T15:35:45.372Z,5
2017-06-19T15:36:55.288Z,5
2017-06-19T15:38:04.603Z,5
2017-06-19T15:39:14.241Z,5
2017-06-19T15:40:24.471Z,5
2017-06-19T15:41:34.241Z,5
2017-06-19T15:42:44.157Z,5
2017-06-19T15:43:53.771Z,5
2017-06-19T15:45:03.071Z,5
2017-06-19T15:46:12.713Z,5
2017-06-19T15:47:22.637Z,5
2017-06-19T15:48:32.572Z,5
2017-06-19T15:49:42.807Z,5
2017-06-19T15:50:52.720Z,5
2017-06-19T15:52:02.944Z,5
2017-06-19T15:53:12.608Z,5
2017-06-19T15:54:21.905Z,5
2017-06-19T15:55:32.139Z,5
2017-06-19T15:56:42.053Z,5
2017-06-19T15:57:51.974Z,5
2017-06-19T15:59:01.742Z,5
2017-06-19T16:00:11.681Z,5
2017-06-19T16:01:21.599Z,5
2017-06-19T16:02:31.845Z,5
2017-06-19T16:03:41.789Z,5
2017-06-19T16:04:52.361Z,5
2017-06-19T16:06:02.278Z,5
2017-06-19T16:07:12.508Z,5
2017-06-19T16:08:22.128Z,5
2017-06-19T16:09:32.054Z,5
2017-06-19T16:10:41.669Z,5
2017-06-19T16:11:51.888Z,5
2017-06-19T16:13:01.805Z,5
2017-06-19T16:14:11.119Z,5
2017-06-19T16:15:21.344Z,5
2017-06-19T16:16:30.951Z,5
2017-06-19T16:17:40.257Z,5
2017-06-19T16:18:50.172Z,5
2017-06-19T16:19:59.475Z,5
2017-06-19T16:21:09.692Z,5
2017-06-19T16:22:19.409Z,5
2017-06-19T16:23:29.027Z,5
2017-06-19T16:24:38.326Z,5
2017-06-19T16:25:47.938Z,5
2017-06-19T16:26:57.548Z,5
2017-06-19T16:28:07.155Z,5
2017-06-19T16:29:16.762Z,5
2017-06-19T16:30:26.688Z,5
2017-06-19T16:31:36.299Z,5
2017-06-19T16:32:46.215Z,5
2017-06-19T16:33:56.305Z,5
2017-06-19T16:35:06.547Z,5
2017-06-19T16:36:15.874Z,5
2017-06-19T16:37:25.495Z,5
2017-06-19T16:38:35.429Z,5
2017-06-19T16:39:45.450Z,5
2017-06-19T16:40:55.370Z,5
2017-06-19T16:42:04.976Z,5
2017-06-19T16:43:14.890Z,5
2017-06-19T16:44:24.495Z,5
2017-06-19T16:45:34.872Z,5
2017-06-19T16:46:44.791Z,5